Tongue Point, Oregon
Current Conditions -  °F | °C
As of 11:14 PM on Friday 19 Dec 2014 (Local Time) from KAST Reporting Station
Light Rain Light Rain  
Wind Chill: 44°   Ceiling: 2600
Heat Index: 47°   Visibility: 10mi
Dew Point: 43°   Wind: 6mph
Humidity: 86%   Direction: 140°SE
Pressure: 29.82"   Gusts: NA
Location:  46.0947°N, 123.685°W
Report Text: KAST 200714Z AUTO 14005KT 10SM -RA BKN026 BKN032 OVC040 08/06 A2982 RMK AO2 P0002 T00830061
Loading
Personal Weather Stations






























Interactive Weather Map New forecast layout! Learn more

10-Day Weather Forecast

Advertisements
Track Severe Weather on mobile